sensor_id;sensor_type;location;lat;lon;timestamp;temperature;humidity
75010;DHT22;63564;46.840;18.336;2024-02-15T00:00:45;7.41;78.59
75010;DHT22;63564;46.840;18.336;2024-02-15T00:03:46;7.69;78.10
75010;DHT22;63564;46.840;18.336;2024-02-15T00:06:46;7.76;75.46
75010;DHT22;63564;46.840;18.336;2024-02-15T00:09:46;7.72;76.41
75010;DHT22;63564;46.840;18.336;2024-02-15T00:12:47;7.73;78.31
75010;DHT22;63564;46.840;18.336;2024-02-15T00:15:48;7.70;76.41
75010;DHT22;63564;46.840;18.336;2024-02-15T00:18:49;7.79;76.77
75010;DHT22;63564;46.840;18.336;2024-02-15T00:21:50;7.66;76.64
75010;DHT22;63564;46.840;18.336;2024-02-15T00:24:50;7.30;80.98
75010;DHT22;63564;46.840;18.336;2024-02-15T00:27:51;7.45;79.87
75010;DHT22;63564;46.840;18.336;2024-02-15T00:30:51;7.30;80.85
75010;DHT22;63564;46.840;18.336;2024-02-15T00:33:51;7.05;80.57
75010;DHT22;63564;46.840;18.336;2024-02-15T00:36:52;7.00;82.38
75010;DHT22;63564;46.840;18.336;2024-02-15T00:39:53;6.84;82.85
75010;DHT22;63564;46.840;18.336;2024-02-15T00:42:53;6.89;82.38
75010;DHT22;63564;46.840;18.336;2024-02-15T00:45:55;6.77;82.67
75010;DHT22;63564;46.840;18.336;2024-02-15T00:48:55;6.86;83.96
75010;DHT22;63564;46.840;18.336;2024-02-15T00:51:56;6.94;81.90
75010;DHT22;63564;46.840;18.336;2024-02-15T00:54:56;6.86;82.90
75010;DHT22;63564;46.840;18.336;2024-02-15T00:57:57;6.91;82.13
75010;DHT22;63564;46.840;18.336;2024-02-15T01:00:57;6.99;81.99
75010;DHT22;63564;46.840;18.336;2024-02-15T01:03:58;7.08;82.15
75010;DHT22;63564;46.840;18.336;2024-02-15T01:06:58;7.05;81.98
75010;DHT22;63564;46.840;18.336;2024-02-15T01:09:59;6.97;84.31
75010;DHT22;63564;46.840;18.336;2024-02-15T01:12:59;6.80;83.31
75010;DHT22;63564;46.840;18.336;2024-02-15T01:15:59;6.91;82.91
75010;DHT22;63564;46.840;18.336;2024-02-15T01:19:03;7.08;82.43
75010;DHT22;63564;46.840;18.336;2024-02-15T01:22:03;6.99;83.23
75010;DHT22;63564;46.840;18.336;2024-02-15T01:25:04;7.15;81.96
75010;DHT22;63564;46.840;18.336;2024-02-15T01:28:04;7.05;83.61
75010;DHT22;63564;46.840;18.336;2024-02-15T01:31:05;6.97;83.43
75010;DHT22;63564;46.840;18.336;2024-02-15T01:34:06;6.93;83.81
75010;DHT22;63564;46.840;18.336;2024-02-15T01:37:07;7.00;83.28
75010;DHT22;63564;46.840;18.336;2024-02-15T01:40:08;6.93;83.80
75010;DHT22;63564;46.840;18.336;2024-02-15T01:43:10;6.71;85.33
75010;DHT22;63564;46.840;18.336;2024-02-15T01:46:10;6.87;85.33
75010;DHT22;63564;46.840;18.336;2024-02-15T01:49:11;6.97;83.59
75010;DHT22;63564;46.840;18.336;2024-02-15T01:52:12;7.00;83.36
75010;DHT22;63564;46.840;18.336;2024-02-15T01:55:15;6.99;83.51
75010;DHT22;63564;46.840;18.336;2024-02-15T01:58:16;6.86;84.68
75010;DHT22;63564;46.840;18.336;2024-02-15T02:01:17;6.77;85.44
75010;DHT22;63564;46.840;18.336;2024-02-15T02:04:18;6.73;85.02
75010;DHT22;63564;46.840;18.336;2024-02-15T02:07:18;6.84;84.33
75010;DHT22;63564;46.840;18.336;2024-02-15T02:10:18;6.84;84.34
75010;DHT22;63564;46.840;18.336;2024-02-15T02:13:19;6.96;83.65
75010;DHT22;63564;46.840;18.336;2024-02-15T02:16:26;6.94;83.58
75010;DHT22;63564;46.840;18.336;2024-02-15T02:19:27;6.84;84.02
75010;DHT22;63564;46.840;18.336;2024-02-15T02:22:28;6.71;85.37
75010;DHT22;63564;46.840;18.336;2024-02-15T02:25:32;6.68;85.57
75010;DHT22;63564;46.840;18.336;2024-02-15T02:28:34;6.79;84.31
75010;DHT22;63564;46.840;18.336;2024-02-15T02:31:34;6.68;84.87
75010;DHT22;63564;46.840;18.336;2024-02-15T02:34:35;6.76;84.47
75010;DHT22;63564;46.840;18.336;2024-02-15T02:37:36;6.84;83.38
75010;DHT22;63564;46.840;18.336;2024-02-15T02:40:36;6.83;84.67
75010;DHT22;63564;46.840;18.336;2024-02-15T02:43:37;6.87;83.53
75010;DHT22;63564;46.840;18.336;2024-02-15T02:46:37;6.77;83.29
75010;DHT22;63564;46.840;18.336;2024-02-15T02:49:38;6.84;83.20
75010;DHT22;63564;46.840;18.336;2024-02-15T02:52:38;6.84;83.15
75010;DHT22;63564;46.840;18.336;2024-02-15T02:55:42;6.86;83.12
75010;DHT22;63564;46.840;18.336;2024-02-15T02:58:43;6.75;83.39
75010;DHT22;63564;46.840;18.336;2024-02-15T03:01:44;6.80;83.53
75010;DHT22;63564;46.840;18.336;2024-02-15T03:04:44;6.93;82.97
75010;DHT22;63564;46.840;18.336;2024-02-15T03:07:44;6.83;83.37
75010;DHT22;63564;46.840;18.336;2024-02-15T03:10:45;6.79;83.40
75010;DHT22;63564;46.840;18.336;2024-02-15T03:13:47;6.79;83.36
75010;DHT22;63564;46.840;18.336;2024-02-15T03:16:48;6.79;83.58
75010;DHT22;63564;46.840;18.336;2024-02-15T03:19:48;7.05;82.45
75010;DHT22;63564;46.840;18.336;2024-02-15T03:22:56;7.12;81.50
75010;DHT22;63564;46.840;18.336;2024-02-15T03:25:57;7.15;81.99
75010;DHT22;63564;46.840;18.336;2024-02-15T03:28:58;7.17;81.13
75010;DHT22;63564;46.840;18.336;2024-02-15T03:31:58;7.28;81.67
75010;DHT22;63564;46.840;18.336;2024-02-15T03:34:58;7.22;82.04
75010;DHT22;63564;46.840;18.336;2024-02-15T03:38:01;7.08;82.08
75010;DHT22;63564;46.840;18.336;2024-02-15T03:41:01;7.01;82.27
75010;DHT22;63564;46.840;18.336;2024-02-15T03:44:02;7.12;81.44
75010;DHT22;63564;46.840;18.336;2024-02-15T03:47:03;7.18;81.68
75010;DHT22;63564;46.840;18.336;2024-02-15T03:50:06;7.08;81.36
75010;DHT22;63564;46.840;18.336;2024-02-15T03:53:09;7.20;81.27
75010;DHT22;63564;46.840;18.336;2024-02-15T03:56:11;7.12;81.26
75010;DHT22;63564;46.840;18.336;2024-02-15T03:59:11;6.93;83.18
75010;DHT22;63564;46.840;18.336;2024-02-15T04:02:13;7.01;81.97
75010;DHT22;63564;46.840;18.336;2024-02-15T04:05:14;7.15;81.41
75010;DHT22;63564;46.840;18.336;2024-02-15T04:08:15;7.11;82.42
75010;DHT22;63564;46.840;18.336;2024-02-15T04:11:16;7.08;81.32
75010;DHT22;63564;46.840;18.336;2024-02-15T04:14:16;7.08;81.36
75010;DHT22;63564;46.840;18.336;2024-02-15T04:17:18;7.08;81.74
75010;DHT22;63564;46.840;18.336;2024-02-15T04:20:22;7.15;81.31
75010;DHT22;63564;46.840;18.336;2024-02-15T04:23:22;7.17;81.42
75010;DHT22;63564;46.840;18.336;2024-02-15T04:26:24;7.08;81.65
75010;DHT22;63564;46.840;18.336;2024-02-15T04:29:27;7.18;81.13
75010;DHT22;63564;46.840;18.336;2024-02-15T04:32:27;7.07;82.34
75010;DHT22;63564;46.840;18.336;2024-02-15T04:35:29;7.22;82.14
75010;DHT22;63564;46.840;18.336;2024-02-15T04:38:31;7.42;82.21
75010;DHT22;63564;46.840;18.336;2024-02-15T04:41:31;7.28;82.05
75010;DHT22;63564;46.840;18.336;2024-02-15T04:44:32;7.31;81.27
75010;DHT22;63564;46.840;18.336;2024-02-15T04:47:35;7.28;82.02
75010;DHT22;63564;46.840;18.336;2024-02-15T04:50:35;7.18;81.20
75010;DHT22;63564;46.840;18.336;2024-02-15T04:53:36;7.22;81.29
75010;DHT22;63564;46.840;18.336;2024-02-15T04:56:41;7.30;81.63
75010;DHT22;63564;46.840;18.336;2024-02-15T04:59:42;7.17;81.50
75010;DHT22;63564;46.840;18.336;2024-02-15T05:02:47;7.20;81.45
75010;DHT22;63564;46.840;18.336;2024-02-15T05:05:47;7.18;81.03
75010;DHT22;63564;46.840;18.336;2024-02-15T05:08:48;7.15;81.03
75010;DHT22;63564;46.840;18.336;2024-02-15T05:11:48;7.25;79.95
75010;DHT22;63564;46.840;18.336;2024-02-15T05:14:48;7.21;80.25
75010;DHT22;63564;46.840;18.336;2024-02-15T05:17:49;7.34;79.80
75010;DHT22;63564;46.840;18.336;2024-02-15T05:20:49;7.18;80.79
75010;DHT22;63564;46.840;18.336;2024-02-15T05:23:50;7.36;80.34
75010;DHT22;63564;46.840;18.336;2024-02-15T05:26:52;7.24;80.14
75010;DHT22;63564;46.840;18.336;2024-02-15T05:29:52;7.15;81.97
75010;DHT22;63564;46.840;18.336;2024-02-15T05:32:53;7.38;79.84
75010;DHT22;63564;46.840;18.336;2024-02-15T05:35:53;7.28;80.68
75010;DHT22;63564;46.840;18.336;2024-02-15T05:38:55;7.48;80.06
75010;DHT22;63564;46.840;18.336;2024-02-15T05:41:57;7.55;80.92
75010;DHT22;63564;46.840;18.336;2024-02-15T05:48:30;7.20;83.09
75010;DHT22;63564;46.840;18.336;2024-02-15T05:51:30;6.97;84.11
75010;DHT22;63564;46.840;18.336;2024-02-15T05:54:31;7.22;83.65
75010;DHT22;63564;46.840;18.336;2024-02-15T05:57:31;7.42;81.99
75010;DHT22;63564;46.840;18.336;2024-02-15T06:00:32;7.39;81.88
75010;DHT22;63564;46.840;18.336;2024-02-15T06:03:35;7.30;81.00
75010;DHT22;63564;46.840;18.336;2024-02-15T06:06:37;7.32;82.38
75010;DHT22;63564;46.840;18.336;2024-02-15T06:09:38;7.17;82.39
75010;DHT22;63564;46.840;18.336;2024-02-15T06:12:41;7.17;82.35
75010;DHT22;63564;46.840;18.336;2024-02-15T06:15:41;7.17;81.99
75010;DHT22;63564;46.840;18.336;2024-02-15T06:18:41;7.15;82.27
75010;DHT22;63564;46.840;18.336;2024-02-15T06:21:42;7.10;82.30
75010;DHT22;63564;46.840;18.336;2024-02-15T06:24:42;7.17;82.17
75010;DHT22;63564;46.840;18.336;2024-02-15T06:27:42;7.15;81.44
75010;DHT22;63564;46.840;18.336;2024-02-15T06:30:43;7.12;81.77
75010;DHT22;63564;46.840;18.336;2024-02-15T06:34:02;7.22;81.62
75010;DHT22;63564;46.840;18.336;2024-02-15T06:37:40;7.15;82.60
75010;DHT22;63564;46.840;18.336;2024-02-15T06:40:59;7.20;83.03
75010;DHT22;63564;46.840;18.336;2024-02-15T06:43:59;7.55;81.80
75010;DHT22;63564;46.840;18.336;2024-02-15T06:47:00;7.48;81.03
75010;DHT22;63564;46.840;18.336;2024-02-15T06:50:01;7.42;81.09
75010;DHT22;63564;46.840;18.336;2024-02-15T06:53:01;7.24;83.49
75010;DHT22;63564;46.840;18.336;2024-02-15T06:56:01;7.52;81.39
75010;DHT22;63564;46.840;18.336;2024-02-15T06:59:03;8.07;79.75
75010;DHT22;63564;46.840;18.336;2024-02-15T07:02:03;8.14;80.88
75010;DHT22;63564;46.840;18.336;2024-02-15T07:05:34;8.37;77.85
75010;DHT22;63564;46.840;18.336;2024-02-15T07:08:35;8.72;78.15
75010;DHT22;63564;46.840;18.336;2024-02-15T07:11:35;8.71;77.60
75010;DHT22;63564;46.840;18.336;2024-02-15T07:14:36;8.51;78.36
75010;DHT22;63564;46.840;18.336;2024-02-15T07:17:36;8.37;79.45
75010;DHT22;63564;46.840;18.336;2024-02-15T07:20:37;8.33;78.71
75010;DHT22;63564;46.840;18.336;2024-02-15T07:23:37;8.59;78.07
75010;DHT22;63564;46.840;18.336;2024-02-15T07:26:37;8.61;79.58
75010;DHT22;63564;46.840;18.336;2024-02-15T07:29:38;8.55;78.76
75010;DHT22;63564;46.840;18.336;2024-02-15T07:32:38;8.58;79.44
75010;DHT22;63564;46.840;18.336;2024-02-15T07:35:39;8.84;77.85
75010;DHT22;63564;46.840;18.336;2024-02-15T07:38:39;8.73;79.08
75010;DHT22;63564;46.840;18.336;2024-02-15T07:41:40;8.73;77.95
75010;DHT22;63564;46.840;18.336;2024-02-15T07:44:40;8.72;77.90
75010;DHT22;63564;46.840;18.336;2024-02-15T07:47:40;8.79;78.17
75010;DHT22;63564;46.840;18.336;2024-02-15T07:50:46;8.54;78.71
75010;DHT22;63564;46.840;18.336;2024-02-15T07:53:47;9.10;78.22
75010;DHT22;63564;46.840;18.336;2024-02-15T07:56:48;9.24;77.35
75010;DHT22;63564;46.840;18.336;2024-02-15T07:59:52;9.30;76.62
75010;DHT22;63564;46.840;18.336;2024-02-15T08:02:52;9.01;78.17
75010;DHT22;63564;46.840;18.336;2024-02-15T08:05:53;9.44;76.69
75010;DHT22;63564;46.840;18.336;2024-02-15T08:09:05;9.41;76.50
75010;DHT22;63564;46.840;18.336;2024-02-15T08:12:05;9.23;76.59
75010;DHT22;63564;46.840;18.336;2024-02-15T08:15:06;9.59;75.76
75010;DHT22;63564;46.840;18.336;2024-02-15T08:18:11;9.75;75.03
75010;DHT22;63564;46.840;18.336;2024-02-15T08:21:12;9.96;73.78
75010;DHT22;63564;46.840;18.336;2024-02-15T08:24:13;10.18;71.44
75010;DHT22;63564;46.840;18.336;2024-02-15T08:27:13;10.12;72.25
75010;DHT22;63564;46.840;18.336;2024-02-15T08:30:16;10.02;72.20
75010;DHT22;63564;46.840;18.336;2024-02-15T08:33:17;10.30;70.63
75010;DHT22;63564;46.840;18.336;2024-02-15T08:36:19;10.41;70.86
75010;DHT22;63564;46.840;18.336;2024-02-15T08:39:21;10.33;71.17
75010;DHT22;63564;46.840;18.336;2024-02-15T08:42:22;10.65;69.65
75010;DHT22;63564;46.840;18.336;2024-02-15T08:45:22;10.60;69.46
75010;DHT22;63564;46.840;18.336;2024-02-15T08:48:23;10.67;67.82
75010;DHT22;63564;46.840;18.336;2024-02-15T08:51:23;10.76;67.17
75010;DHT22;63564;46.840;18.336;2024-02-15T08:54:25;10.65;68.95
75010;DHT22;63564;46.840;18.336;2024-02-15T08:57:27;10.95;68.22
75010;DHT22;63564;46.840;18.336;2024-02-15T09:00:27;10.88;68.07
75010;DHT22;63564;46.840;18.336;2024-02-15T09:03:27;10.92;70.84
75010;DHT22;63564;46.840;18.336;2024-02-15T09:06:28;10.98;68.40
75010;DHT22;63564;46.840;18.336;2024-02-15T09:09:28;11.00;70.39
75010;DHT22;63564;46.840;18.336;2024-02-15T09:12:28;10.89;72.25
75010;DHT22;63564;46.840;18.336;2024-02-15T09:15:30;11.00;70.69
75010;DHT22;63564;46.840;18.336;2024-02-15T09:18:31;11.44;70.29
75010;DHT22;63564;46.840;18.336;2024-02-15T09:21:33;11.13;71.82
75010;DHT22;63564;46.840;18.336;2024-02-15T09:24:34;11.05;73.58
75010;DHT22;63564;46.840;18.336;2024-02-15T09:27:34;11.46;70.94
75010;DHT22;63564;46.840;18.336;2024-02-15T09:30:34;11.67;70.34
75010;DHT22;63564;46.840;18.336;2024-02-15T09:33:35;11.82;69.56
75010;DHT22;63564;46.840;18.336;2024-02-15T09:36:36;11.67;68.57
75010;DHT22;63564;46.840;18.336;2024-02-15T09:39:39;11.55;68.63
75010;DHT22;63564;46.840;18.336;2024-02-15T09:42:40;11.68;68.55
75010;DHT22;63564;46.840;18.336;2024-02-15T09:45:40;12.09;66.30
75010;DHT22;63564;46.840;18.336;2024-02-15T09:48:47;12.30;68.51
75010;DHT22;63564;46.840;18.336;2024-02-15T09:51:51;12.36;67.88
75010;DHT22;63564;46.840;18.336;2024-02-15T09:54:54;12.09;64.74
75010;DHT22;63564;46.840;18.336;2024-02-15T09:57:55;12.44;66.58
75010;DHT22;63564;46.840;18.336;2024-02-15T10:00:56;12.81;66.67
75010;DHT22;63564;46.840;18.336;2024-02-15T10:03:58;13.30;63.43
75010;DHT22;63564;46.840;18.336;2024-02-15T10:07:02;13.39;64.15
75010;DHT22;63564;46.840;18.336;2024-02-15T10:10:16;13.22;64.60
75010;DHT22;63564;46.840;18.336;2024-02-15T10:13:22;13.78;62.84
75010;DHT22;63564;46.840;18.336;2024-02-15T10:16:23;13.39;63.16
75010;DHT22;63564;46.840;18.336;2024-02-15T10:19:25;13.33;64.58
75010;DHT22;63564;46.840;18.336;2024-02-15T10:22:26;13.78;62.62
75010;DHT22;63564;46.840;18.336;2024-02-15T10:25:27;14.38;60.99
75010;DHT22;63564;46.840;18.336;2024-02-15T10:28:27;14.76;63.49
75010;DHT22;63564;46.840;18.336;2024-02-15T10:31:29;13.80;59.76
75010;DHT22;63564;46.840;18.336;2024-02-15T10:34:30;13.81;61.83
75010;DHT22;63564;46.840;18.336;2024-02-15T10:37:31;15.90;65.03
75010;DHT22;63564;46.840;18.336;2024-02-15T10:40:32;14.39;58.51
75010;DHT22;63564;46.840;18.336;2024-02-15T10:43:34;13.97;62.98
75010;DHT22;63564;46.840;18.336;2024-02-15T10:46:34;13.39;66.38
75010;DHT22;63564;46.840;18.336;2024-02-15T10:49:35;13.78;63.65
75010;DHT22;63564;46.840;18.336;2024-02-15T10:52:37;13.63;64.26
75010;DHT22;63564;46.840;18.336;2024-02-15T10:55:53;13.60;62.83
75010;DHT22;63564;46.840;18.336;2024-02-15T10:59:37;13.02;64.27
75010;DHT22;63564;46.840;18.336;2024-02-15T11:02:37;13.12;65.75
75010;DHT22;63564;46.840;18.336;2024-02-15T11:05:37;13.50;62.87
75010;DHT22;63564;46.840;18.336;2024-02-15T11:08:38;13.06;64.72
75010;DHT22;63564;46.840;18.336;2024-02-15T11:11:40;12.91;64.32
75010;DHT22;63564;46.840;18.336;2024-02-15T11:14:44;12.84;65.31
75010;DHT22;63564;46.840;18.336;2024-02-15T11:17:45;12.88;65.69
75010;DHT22;63564;46.840;18.336;2024-02-15T11:20:49;13.02;65.85
75010;DHT22;63564;46.840;18.336;2024-02-15T11:23:49;13.40;64.23
75010;DHT22;63564;46.840;18.336;2024-02-15T11:26:50;13.49;65.54
75010;DHT22;63564;46.840;18.336;2024-02-15T11:30:00;13.12;67.72
75010;DHT22;63564;46.840;18.336;2024-02-15T11:33:28;13.29;68.59
75010;DHT22;63564;46.840;18.336;2024-02-15T11:36:32;13.33;65.58
75010;DHT22;63564;46.840;18.336;2024-02-15T11:39:47;13.32;64.06
75010;DHT22;63564;46.840;18.336;2024-02-15T11:42:54;13.91;68.23
75010;DHT22;63564;46.840;18.336;2024-02-15T11:46:00;13.66;67.17
75010;DHT22;63564;46.840;18.336;2024-02-15T11:49:00;13.94;64.78
75010;DHT22;63564;46.840;18.336;2024-02-15T11:52:09;13.73;64.97
75010;DHT22;63564;46.840;18.336;2024-02-15T11:55:10;14.18;65.54
75010;DHT22;63564;46.840;18.336;2024-02-15T11:58:13;14.00;63.79
75010;DHT22;63564;46.840;18.336;2024-02-15T12:01:29;13.98;62.15
75010;DHT22;63564;46.840;18.336;2024-02-15T12:04:48;13.91;62.77
75010;DHT22;63564;46.840;18.336;2024-02-15T12:08:07;13.18;64.87
75010;DHT22;63564;46.840;18.336;2024-02-15T12:11:26;13.73;64.23
75010;DHT22;63564;46.840;18.336;2024-02-15T12:14:45;13.81;62.78
75010;DHT22;63564;46.840;18.336;2024-02-15T12:18:14;13.57;63.17
75010;DHT22;63564;46.840;18.336;2024-02-15T12:21:33;13.33;64.71
75010;DHT22;63564;46.840;18.336;2024-02-15T12:24:34;13.78;63.47
75010;DHT22;63564;46.840;18.336;2024-02-15T12:27:35;13.54;63.75
75010;DHT22;63564;46.840;18.336;2024-02-15T12:30:35;13.52;64.17
75010;DHT22;63564;46.840;18.336;2024-02-15T12:33:40;13.80;62.29
75010;DHT22;63564;46.840;18.336;2024-02-15T12:36:40;13.59;63.35
75010;DHT22;63564;46.840;18.336;2024-02-15T12:39:42;13.38;64.57
75010;DHT22;63564;46.840;18.336;2024-02-15T12:42:44;13.46;64.16
75010;DHT22;63564;46.840;18.336;2024-02-15T12:45:45;13.59;66.07
75010;DHT22;63564;46.840;18.336;2024-02-15T12:48:45;13.54;63.52
75010;DHT22;63564;46.840;18.336;2024-02-15T12:51:50;13.75;60.12
75010;DHT22;63564;46.840;18.336;2024-02-15T12:55:06;13.74;63.79
75010;DHT22;63564;46.840;18.336;2024-02-15T12:58:13;14.02;61.16
75010;DHT22;63564;46.840;18.336;2024-02-15T13:01:15;13.97;59.37
75010;DHT22;63564;46.840;18.336;2024-02-15T13:04:25;13.69;60.22
75010;DHT22;63564;46.840;18.336;2024-02-15T13:07:34;14.00;63.63
75010;DHT22;63564;46.840;18.336;2024-02-15T13:10:35;13.54;60.19
75010;DHT22;63564;46.840;18.336;2024-02-15T13:13:39;14.26;61.28
75010;DHT22;63564;46.840;18.336;2024-02-15T13:16:41;14.17;63.32
75010;DHT22;63564;46.840;18.336;2024-02-15T13:19:48;14.24;63.35
75010;DHT22;63564;46.840;18.336;2024-02-15T13:22:49;14.30;64.02
75010;DHT22;63564;46.840;18.336;2024-02-15T13:26:01;13.92;65.10
75010;DHT22;63564;46.840;18.336;2024-02-15T13:29:08;14.30;64.78
75010;DHT22;63564;46.840;18.336;2024-02-15T13:32:08;14.22;67.04
75010;DHT22;63564;46.840;18.336;2024-02-15T13:35:12;14.15;65.76
75010;DHT22;63564;46.840;18.336;2024-02-15T13:38:19;13.97;66.61
75010;DHT22;63564;46.840;18.336;2024-02-15T13:41:26;14.33;66.06
75010;DHT22;63564;46.840;18.336;2024-02-15T13:44:27;14.52;65.96
75010;DHT22;63564;46.840;18.336;2024-02-15T13:47:27;14.29;66.61
75010;DHT22;63564;46.840;18.336;2024-02-15T13:50:29;13.81;66.89
75010;DHT22;63564;46.840;18.336;2024-02-15T13:53:30;13.66;68.07
75010;DHT22;63564;46.840;18.336;2024-02-15T13:56:30;13.71;67.48
75010;DHT22;63564;46.840;18.336;2024-02-15T13:59:31;13.66;68.21
75010;DHT22;63564;46.840;18.336;2024-02-15T14:02:31;13.25;68.35
75010;DHT22;63564;46.840;18.336;2024-02-15T14:05:32;13.16;69.57
75010;DHT22;63564;46.840;18.336;2024-02-15T14:08:33;13.33;69.06
75010;DHT22;63564;46.840;18.336;2024-02-15T14:11:33;13.59;67.80
75010;DHT22;63564;46.840;18.336;2024-02-15T14:14:33;13.36;67.91
75010;DHT22;63564;46.840;18.336;2024-02-15T14:17:34;13.40;67.19
75010;DHT22;63564;46.840;18.336;2024-02-15T14:20:35;13.57;67.26
75010;DHT22;63564;46.840;18.336;2024-02-15T14:23:36;13.39;67.23
75010;DHT22;63564;46.840;18.336;2024-02-15T14:26:36;13.35;67.65
75010;DHT22;63564;46.840;18.336;2024-02-15T14:29:37;13.60;66.19
75010;DHT22;63564;46.840;18.336;2024-02-15T14:32:45;13.56;66.03
75010;DHT22;63564;46.840;18.336;2024-02-15T14:36:01;13.12;65.85
75010;DHT22;63564;46.840;18.336;2024-02-15T14:39:01;13.33;66.16
75010;DHT22;63564;46.840;18.336;2024-02-15T14:42:03;13.01;67.26
75010;DHT22;63564;46.840;18.336;2024-02-15T14:45:03;13.14;67.33
75010;DHT22;63564;46.840;18.336;2024-02-15T14:48:04;13.29;67.32
75010;DHT22;63564;46.840;18.336;2024-02-15T14:51:05;13.12;66.93
75010;DHT22;63564;46.840;18.336;2024-02-15T14:54:05;12.88;68.42
75010;DHT22;63564;46.840;18.336;2024-02-15T14:57:06;12.91;68.94
75010;DHT22;63564;46.840;18.336;2024-02-15T15:00:07;12.81;69.78
75010;DHT22;63564;46.840;18.336;2024-02-15T15:03:15;12.81;70.09
75010;DHT22;63564;46.840;18.336;2024-02-15T15:06:15;12.73;70.47
75010;DHT22;63564;46.840;18.336;2024-02-15T15:09:34;12.95;70.70
75010;DHT22;63564;46.840;18.336;2024-02-15T15:12:53;12.83;71.18
75010;DHT22;63564;46.840;18.336;2024-02-15T15:15:53;12.60;72.09
75010;DHT22;63564;46.840;18.336;2024-02-15T15:18:54;12.76;72.66
75010;DHT22;63564;46.840;18.336;2024-02-15T15:21:55;12.37;73.89
75010;DHT22;63564;46.840;18.336;2024-02-15T15:24:55;12.36;73.71
75010;DHT22;63564;46.840;18.336;2024-02-15T15:27:56;12.44;73.98
75010;DHT22;63564;46.840;18.336;2024-02-15T15:30:57;12.46;73.63
75010;DHT22;63564;46.840;18.336;2024-02-15T15:33:58;12.40;73.84
75010;DHT22;63564;46.840;18.336;2024-02-15T15:36:58;12.32;74.28
75010;DHT22;63564;46.840;18.336;2024-02-15T15:39:58;12.32;74.03
75010;DHT22;63564;46.840;18.336;2024-02-15T15:42:59;12.16;74.59
75010;DHT22;63564;46.840;18.336;2024-02-15T15:45:59;11.81;76.23
75010;DHT22;63564;46.840;18.336;2024-02-15T15:49:00;11.91;76.42
75010;DHT22;63564;46.840;18.336;2024-02-15T15:52:01;11.92;76.30
75010;DHT22;63564;46.840;18.336;2024-02-15T15:55:02;11.92;76.08
75010;DHT22;63564;46.840;18.336;2024-02-15T15:58:02;11.88;76.42
75010;DHT22;63564;46.840;18.336;2024-02-15T16:01:03;11.73;76.81
75010;DHT22;63564;46.840;18.336;2024-02-15T16:04:04;11.67;77.21
75010;DHT22;63564;46.840;18.336;2024-02-15T16:07:05;11.70;77.02
75010;DHT22;63564;46.840;18.336;2024-02-15T16:10:07;11.61;77.73
75010;DHT22;63564;46.840;18.336;2024-02-15T16:13:12;11.33;78.61
75010;DHT22;63564;46.840;18.336;2024-02-15T16:16:12;11.20;79.30
75010;DHT22;63564;46.840;18.336;2024-02-15T16:19:14;11.27;79.54
75010;DHT22;63564;46.840;18.336;2024-02-15T16:22:14;11.34;78.66
75010;DHT22;63564;46.840;18.336;2024-02-15T16:25:15;11.30;78.95
75010;DHT22;63564;46.840;18.336;2024-02-15T16:28:15;11.24;79.90
75010;DHT22;63564;46.840;18.336;2024-02-15T16:31:15;11.06;80.86
75010;DHT22;63564;46.840;18.336;2024-02-15T16:34:16;10.98;81.50
75010;DHT22;63564;46.840;18.336;2024-02-15T16:37:17;10.95;81.78
75010;DHT22;63564;46.840;18.336;2024-02-15T16:40:18;10.96;81.56
75010;DHT22;63564;46.840;18.336;2024-02-15T16:43:22;10.96;81.14
75010;DHT22;63564;46.840;18.336;2024-02-15T16:46:23;10.78;81.60
75010;DHT22;63564;46.840;18.336;2024-02-15T16:49:24;10.83;81.32
75010;DHT22;63564;46.840;18.336;2024-02-15T16:52:24;10.76;81.12
75010;DHT22;63564;46.840;18.336;2024-02-15T16:55:26;10.75;81.19
75010;DHT22;63564;46.840;18.336;2024-02-15T16:58:33;10.60;81.48
75010;DHT22;63564;46.840;18.336;2024-02-15T17:01:36;10.69;81.32
75010;DHT22;63564;46.840;18.336;2024-02-15T17:04:37;10.72;81.25
75010;DHT22;63564;46.840;18.336;2024-02-15T17:07:37;10.72;81.30
75010;DHT22;63564;46.840;18.336;2024-02-15T17:10:38;10.69;81.16
75010;DHT22;63564;46.840;18.336;2024-02-15T17:13:38;10.67;80.87
75010;DHT22;63564;46.840;18.336;2024-02-15T17:16:43;10.67;80.80
75010;DHT22;63564;46.840;18.336;2024-02-15T17:19:43;10.58;81.39
75010;DHT22;63564;46.840;18.336;2024-02-15T17:22:45;10.47;82.08
75010;DHT22;63564;46.840;18.336;2024-02-15T17:25:48;10.25;83.36
75010;DHT22;63564;46.840;18.336;2024-02-15T17:28:52;10.17;83.86
75010;DHT22;63564;46.840;18.336;2024-02-15T17:31:57;10.24;83.82
75010;DHT22;63564;46.840;18.336;2024-02-15T17:34:58;10.40;82.96
75010;DHT22;63564;46.840;18.336;2024-02-15T17:37:58;10.45;82.54
75010;DHT22;63564;46.840;18.336;2024-02-15T17:41:01;10.30;83.04
75010;DHT22;63564;46.840;18.336;2024-02-15T17:44:02;10.14;83.77
75010;DHT22;63564;46.840;18.336;2024-02-15T17:47:03;10.25;83.34
75010;DHT22;63564;46.840;18.336;2024-02-15T17:50:08;10.36;82.92
75010;DHT22;63564;46.840;18.336;2024-02-15T17:53:10;10.13;83.87
75010;DHT22;63564;46.840;18.336;2024-02-15T17:56:10;10.18;84.13
75010;DHT22;63564;46.840;18.336;2024-02-15T17:59:14;10.23;83.80
75010;DHT22;63564;46.840;18.336;2024-02-15T18:02:14;10.27;83.61
75010;DHT22;63564;46.840;18.336;2024-02-15T18:05:16;10.21;83.87
75010;DHT22;63564;46.840;18.336;2024-02-15T18:08:17;10.20;83.87
75010;DHT22;63564;46.840;18.336;2024-02-15T18:11:19;10.25;83.02
75010;DHT22;63564;46.840;18.336;2024-02-15T18:14:20;10.25;82.95
75010;DHT22;63564;46.840;18.336;2024-02-15T18:17:22;10.16;82.74
75010;DHT22;63564;46.840;18.336;2024-02-15T18:20:23;10.21;82.63
75010;DHT22;63564;46.840;18.336;2024-02-15T18:23:23;10.27;82.29
75010;DHT22;63564;46.840;18.336;2024-02-15T18:26:23;10.12;82.91
75010;DHT22;63564;46.840;18.336;2024-02-15T18:29:24;10.07;83.11
75010;DHT22;63564;46.840;18.336;2024-02-15T18:32:24;10.13;83.18
75010;DHT22;63564;46.840;18.336;2024-02-15T18:35:25;9.89;84.26
75010;DHT22;63564;46.840;18.336;2024-02-15T18:38:26;9.74;85.49
75010;DHT22;63564;46.840;18.336;2024-02-15T18:41:27;9.59;86.23
75010;DHT22;63564;46.840;18.336;2024-02-15T18:44:28;9.52;86.34
75010;DHT22;63564;46.840;18.336;2024-02-15T18:47:29;9.65;86.14
75010;DHT22;63564;46.840;18.336;2024-02-15T18:50:29;9.62;86.05
75010;DHT22;63564;46.840;18.336;2024-02-15T18:53:30;9.62;85.86
75010;DHT22;63564;46.840;18.336;2024-02-15T18:56:31;9.65;85.65
75010;DHT22;63564;46.840;18.336;2024-02-15T18:59:31;9.76;85.18
75010;DHT22;63564;46.840;18.336;2024-02-15T19:02:31;9.71;84.94
75010;DHT22;63564;46.840;18.336;2024-02-15T19:05:32;9.49;85.98